Aguadilla, Puerto Rico
Current Conditions -  °F | °C
As of 7:50 PM on Tuesday 21 Oct 2014 (Local Time) from TJBQ Reporting Station
Light Rain Light Rain  
Wind Chill: 75°   Ceiling: 2500
Heat Index: 75°   Visibility: 10mi
Dew Point: 73°   Wind: 5mph
Humidity: 94%   Direction: 150°SSE
Pressure: 29.93"   Gusts: NA
Location:  18.49°N, 67.13°W
Report Text: TJBQ 212350Z 15004KT 10SM -RA OVC025 24/23 A2993 RMK RWY26 ATIS E
Loading
Personal Weather Stations






























Interactive Weather Map
Tropical Storm Tracking
New forecast layout! Learn more

10-Day Weather Forecast

Advertisements
Track Severe Weather on mobile